Terminal Aerodrome Forecast
Issued by NWS

Home | Current Version | Previous Version | Text Only | Print | Product List | Glossary On
Versions: 1 2 3 4 5 6 7 8 9 10 11 12 13 14 15 16 17
992
FTUS45 KFGZ 230640 AAB
TAFSEZ
TAF AMD
KSEZ 230640Z 2307/2406 17013KT P6SM BKN060
     FM231100 18012KT 4SM -SN BKN045
     FM231900 20014KT 3SM -SN SCT025 BKN035
     FM240000 26010KT P6SM BKN050=

USA.gov is the U.S. government's official web portal to all federal, state and local government web resources and services.